Time;durP1;ratioP1;P1;durP2;ratioP2;P2;SDS_P1;SDS_P2;PMS_P1;PMS_P2;Temp;Humidity;BMP_temperature;BMP_pressure;BME280_temperature;BME280_humidity;BME280_pressure;Samples;Min_cycle;Max_cycle;Signal;HPM_P1;HPM_P2
2022/10/23 00:02:13;;;;;;;26.20;24.42;;;;;;;11.60;100.00;100789.19;5065514;28;20044;-72
2022/10/23 00:04:38;;;;;;;26.52;24.63;;;;;;;11.69;100.00;100785.63;5071136;28;20028;-72
2022/10/23 00:07:03;;;;;;;26.67;24.77;;;;;;;11.78;100.00;100782.91;5070205;28;20075;-72
2022/10/23 00:09:28;;;;;;;27.00;25.20;;;;;;;11.89;100.00;100785.50;5069262;28;20137;-72
2022/10/23 00:11:54;;;;;;;26.92;24.77;;;;;;;11.93;100.00;100785.47;5070869;28;20024;-72
2022/10/23 00:14:22;;;;;;;27.70;25.60;;;;;;;12.01;100.00;100788.94;5066759;28;20110;-72
2022/10/23 00:16:48;;;;;;;29.90;27.60;;;;;;;12.09;100.00;100785.38;5066677;28;20380;-72
2022/10/23 00:19:14;;;;;;;29.45;27.52;;;;;;;12.11;100.00;100778.31;5071508;28;20123;-72
2022/10/23 00:21:39;;;;;;;26.80;24.85;;;;;;;12.05;100.00;100777.47;5070665;28;20214;-72
2022/10/23 00:24:05;;;;;;;28.27;26.27;;;;;;;12.00;100.00;100787.19;5068967;28;20089;-72
2022/10/23 00:26:30;;;;;;;26.95;24.92;;;;;;;11.89;100.00;100782.88;5062786;28;20032;-73
2022/10/23 00:28:56;;;;;;;28.38;26.42;;;;;;;11.81;100.00;100783.75;5065873;28;20405;-72
2022/10/23 00:31:23;;;;;;;28.85;26.90;;;;;;;11.72;100.00;100775.91;5063994;28;20507;-72
2022/10/23 00:33:49;;;;;;;27.92;26.00;;;;;;;11.59;100.00;100777.75;5062644;28;20090;-72
2022/10/23 00:36:16;;;;;;;29.15;27.05;;;;;;;11.47;100.00;100772.53;5061730;28;20064;-73
2022/10/23 00:38:43;;;;;;;29.45;27.25;;;;;;;11.40;100.00;100774.34;5063930;28;20027;-72
2022/10/23 00:41:15;;;;;;;26.67;25.08;;;;;;;11.31;100.00;100769.09;5074659;28;20021;-72
2022/10/23 00:44:16;;;;;;;26.00;23.92;;;;;;;11.21;100.00;100770.03;5068610;28;20051;-72
2022/10/23 00:46:41;;;;;;;27.13;25.25;;;;;;;11.09;100.00;100778.03;5026022;28;20552;-72
2022/10/23 00:49:08;;;;;;;26.75;25.15;;;;;;;11.01;100.00;100780.72;5069421;28;20064;-72
2022/10/23 00:51:45;;;;;;;26.38;24.55;;;;;;;10.92;100.00;100781.59;5069424;28;20032;-72
2022/10/23 00:54:15;;;;;;;27.55;25.80;;;;;;;10.89;100.00;100781.63;5065461;28;20123;-72
2022/10/23 00:56:43;;;;;;;28.38;26.58;;;;;;;10.85;100.00;100779.00;5069619;28;20032;-73
2022/10/23 00:59:08;;;;;;;27.90;25.95;;;;;;;10.80;100.00;100779.03;5066328;28;20402;-72
2022/10/23 01:01:34;;;;;;;24.90;23.40;;;;;;;10.73;100.00;100774.63;5069696;28;20032;-72
2022/10/23 01:04:01;;;;;;;26.92;25.10;;;;;;;10.69;100.00;100789.63;5070167;28;20044;-72
2022/10/23 01:06:55;;;;;;;26.25;24.25;;;;;;;10.64;100.00;100787.88;5068385;28;20020;-72
2022/10/23 01:09:35;;;;;;;25.92;23.95;;;;;;;10.61;100.00;100780.84;5067783;28;20055;-72
2022/10/23 01:12:37;;;;;;;24.90;23.10;;;;;;;10.57;100.00;100780.84;5041979;28;20031;-72
2022/10/23 01:15:09;;;;;;;23.25;21.55;;;;;;;10.54;100.00;100779.09;5068699;28;20044;-74
2022/10/23 01:17:54;;;;;;;24.50;22.85;;;;;;;10.49;100.00;100778.22;5042660;28;20036;-73
2022/10/23 01:20:43;;;;;;;22.35;20.65;;;;;;;10.48;100.00;100779.09;5067537;28;20047;-72
2022/10/23 01:23:41;;;;;;;23.77;22.17;;;;;;;10.45;100.00;100785.28;5068402;28;20052;-73
2022/10/23 01:26:24;;;;;;;23.85;22.20;;;;;;;10.45;100.00;100785.28;5069935;28;20024;-72
2022/10/23 01:29:00;;;;;;;24.30;22.60;;;;;;;10.43;100.00;100787.03;5043459;28;20133;-72
2022/10/23 01:31:34;;;;;;;23.50;21.98;;;;;;;10.43;100.00;100787.03;5051187;28;20047;-72
2022/10/23 01:34:14;;;;;;;25.40;23.40;;;;;;;10.48;100.00;100787.03;5047408;28;20548;-72
2022/10/23 01:36:46;;;;;;;24.05;22.55;;;;;;;10.47;100.00;100788.75;5059912;28;20406;-72
2022/10/23 01:39:19;;;;;;;24.33;22.33;;;;;;;10.41;100.00;100783.50;5044606;28;20039;-72
2022/10/23 01:41:56;;;;;;;24.48;22.77;;;;;;;10.42;100.00;100792.28;5063879;28;20036;-72
2022/10/23 01:44:32;;;;;;;24.65;22.85;;;;;;;10.39;100.00;100782.63;5066188;28;20087;-72
2022/10/23 01:46:59;;;;;;;22.58;21.17;;;;;;;10.30;100.00;100794.06;5048158;28;20028;-72
2022/10/23 01:49:29;;;;;;;24.90;23.20;;;;;;;10.26;100.00;100788.75;5050266;28;20390;-72
2022/10/23 01:52:00;;;;;;;22.60;21.17;;;;;;;10.25;100.00;100789.66;5049948;28;20032;-72
2022/10/23 01:54:30;;;;;;;23.67;22.15;;;;;;;10.25;100.00;100779.09;5048287;28;20029;-72
2022/10/23 01:56:57;;;;;;;24.13;22.60;;;;;;;10.25;100.00;100792.28;5069164;28;20132;-72
2022/10/23 01:59:34;;;;;;;23.30;21.80;;;;;;;10.24;100.00;100779.97;5063185;28;20060;-72
2022/10/23 02:02:01;;;;;;;22.77;21.08;;;;;;;10.21;100.00;100785.25;5047531;28;20051;-72
2022/10/23 02:04:34;;;;;;;24.38;22.83;;;;;;;10.21;100.00;100785.25;5069167;28;20074;-72
2022/10/23 02:07:00;;;;;;;23.17;21.67;;;;;;;10.22;100.00;100781.75;5045985;28;20181;-73
2022/10/23 02:09:26;;;;;;;23.83;22.33;;;;;;;10.23;100.00;100773.81;5056885;28;20039;-73
2022/10/23 02:12:05;;;;;;;24.23;22.50;;;;;;;10.24;100.00;100774.69;5059485;28;20380;-72
2022/10/23 02:14:53;;;;;;;23.80;22.15;;;;;;;10.25;100.00;100768.53;5049313;28;20037;-72
2022/10/23 02:17:56;;;;;;;23.17;21.67;;;;;;;10.25;100.00;100774.69;5048740;28;20033;-73
2022/10/23 02:20:28;;;;;;;23.98;22.33;;;;;;;10.26;100.00;100770.28;5053302;28;20033;-73
2022/10/23 02:23:05;;;;;;;23.45;21.95;;;;;;;10.26;100.00;100775.56;5065123;28;20411;-72
2022/10/23 02:26:14;;;;;;;23.50;21.90;;;;;;;10.20;100.00;100783.50;5049962;28;20037;-72
2022/10/23 02:28:48;;;;;;;21.38;19.98;;;;;;;10.17;100.00;100778.22;5067563;28;20036;-73
2022/10/23 02:31:18;;;;;;;23.27;21.20;;;;;;;10.15;100.00;100774.72;5070363;28;20043;-72
2022/10/23 02:33:45;;;;;;;23.95;21.88;;;;;;;10.12;100.00;100769.44;5068142;28;20044;-72
2022/10/23 02:36:11;;;;;;;23.63;21.83;;;;;;;10.09;100.00;100776.47;5067336;28;20407;-72
2022/10/23 02:38:40;;;;;;;23.38;21.80;;;;;;;10.10;100.00;100772.06;5048376;28;20048;-72
2022/10/23 02:41:25;;;;;;;22.65;21.05;;;;;;;10.07;100.00;100772.06;5072739;28;20437;-72
2022/10/23 02:44:14;;;;;;;22.70;21.10;;;;;;;10.07;100.00;100772.94;5063749;28;20029;-73
2022/10/23 02:47:03;;;;;;;22.42;21.02;;;;;;;10.11;100.00;100768.53;5058181;28;20082;-72
2022/10/23 02:49:50;;;;;;;20.80;19.40;;;;;;;10.12;100.00;100759.75;5048955;28;20071;-72
2022/10/23 02:52:31;;;;;;;21.92;20.42;;;;;;;10.15;100.00;100766.78;5057490;28;20119;-72
2022/10/23 02:55:05;;;;;;;20.85;19.55;;;;;;;10.18;100.00;100764.16;5065912;28;20048;-72
2022/10/23 02:57:51;;;;;;;18.55;17.15;;;;;;;10.19;100.00;100772.06;5045098;28;20551;-72
2022/10/23 03:00:19;;;;;;;18.75;17.45;;;;;;;10.18;100.00;100774.69;5044878;28;20044;-72
2022/10/23 03:02:47;;;;;;;19.23;17.67;;;;;;;10.18;100.00;100770.28;5065525;28;20029;-72
2022/10/23 03:05:21;;;;;;;17.88;16.60;;;;;;;10.18;100.00;100774.69;5041964;28;20037;-72
2022/10/23 03:07:47;;;;;;;17.25;16.05;;;;;;;10.14;100.00;100763.28;5053659;28;20029;-72
2022/10/23 03:10:15;;;;;;;18.00;16.75;;;;;;;10.07;100.00;100767.66;5062240;28;20021;-72
2022/10/23 03:12:40;;;;;;;16.90;15.48;;;;;;;10.06;100.00;100771.19;5047342;28;20033;-72
2022/10/23 03:15:07;;;;;;;20.35;19.05;;;;;;;10.04;100.00;100772.06;5041460;28;20064;-72
2022/10/23 03:17:32;;;;;;;16.75;15.55;;;;;;;10.01;100.00;100772.09;5065340;28;20036;-72
2022/10/23 03:19:58;;;;;;;19.02;17.83;;;;;;;10.00;100.00;100779.09;5063536;28;20027;-72
2022/10/23 03:22:24;;;;;;;17.77;16.67;;;;;;;9.97;100.00;100781.72;5043262;28;20445;-72
2022/10/23 03:24:49;;;;;;;17.27;16.23;;;;;;;9.93;100.00;100789.63;5066604;28;20111;-72
2022/10/23 03:27:15;;;;;;;18.75;17.60;;;;;;;9.86;100.00;100784.38;5060183;28;20191;-72
2022/10/23 03:29:41;;;;;;;17.25;15.82;;;;;;;9.87;100.00;100785.22;5067827;28;20029;-72
2022/10/23 03:32:06;;;;;;;18.75;17.55;;;;;;;9.90;100.00;100779.97;5067472;28;20036;-72
2022/10/23 03:34:31;;;;;;;18.85;17.65;;;;;;;9.94;100.00;100781.72;5062167;28;20039;-73
2022/10/23 03:36:57;;;;;;;17.52;16.42;;;;;;;9.99;100.00;100782.63;5061982;28;20049;-72
2022/10/23 03:39:22;;;;;;;18.35;17.05;;;;;;;10.04;100.00;100779.97;5063116;28;20033;-72
2022/10/23 03:41:47;;;;;;;17.83;16.73;;;;;;;10.06;100.00;100783.47;5054898;28;20101;-72
2022/10/23 03:44:14;;;;;;;17.98;16.60;;;;;;;10.10;100.00;100783.47;5060338;28;20032;-72
2022/10/23 03:46:43;;;;;;;18.23;16.75;;;;;;;10.16;100.00;100787.00;5048363;28;20070;-72
2022/10/23 03:49:09;;;;;;;18.55;17.42;;;;;;;10.17;100.00;100788.78;5066118;28;20028;-72
2022/10/23 03:51:34;;;;;;;18.17;16.88;;;;;;;10.16;100.00;100773.81;5064597;28;20515;-72
2022/10/23 03:53:59;;;;;;;16.90;15.82;;;;;;;10.09;100.00;100773.81;5065166;28;20048;-72
2022/10/23 03:56:25;;;;;;;16.98;15.98;;;;;;;10.12;100.00;100769.44;5043030;28;20110;-72
2022/10/23 03:58:50;;;;;;;17.67;16.48;;;;;;;10.11;100.00;100768.53;5063834;28;20036;-72
2022/10/23 04:01:15;;;;;;;17.35;16.33;;;;;;;10.18;100.00;100775.56;5066761;28;20080;-72
2022/10/23 04:03:41;;;;;;;18.35;17.15;;;;;;;10.25;100.00;100771.19;5046807;28;20063;-72
2022/10/23 04:06:06;;;;;;;17.23;15.95;;;;;;;10.24;100.00;100774.69;5043452;28;20032;-72
2022/10/23 04:08:31;;;;;;;17.55;16.52;;;;;;;10.24;100.00;100774.69;5042474;28;20029;-72
2022/10/23 04:10:57;;;;;;;17.02;15.82;;;;;;;10.16;100.00;100772.03;5054069;28;20029;-73
2022/10/23 04:13:32;;;;;;;17.02;15.95;;;;;;;10.20;100.00;100773.81;5061173;28;20033;-72
2022/10/23 04:15:58;;;;;;;17.42;16.42;;;;;;;10.21;100.00;100766.78;5043778;28;20502;-73
2022/10/23 04:18:23;;;;;;;20.05;18.45;;;;;;;10.18;100.00;100766.78;5062223;28;20176;-72
2022/10/23 04:20:49;;;;;;;17.58;16.50;;;;;;;10.19;100.00;100760.63;5042650;28;20444;-71
2022/10/23 04:23:16;;;;;;;17.25;16.10;;;;;;;10.19;100.00;100750.06;5063808;28;20036;-71
2022/10/23 04:25:42;;;;;;;16.58;15.55;;;;;;;10.20;100.00;100765.03;5061600;28;20120;-72
2022/10/23 04:28:07;;;;;;;17.52;16.33;;;;;;;10.17;100.00;100767.69;5062441;28;20064;-72
2022/10/23 04:30:36;;;;;;;17.85;16.40;;;;;;;10.14;100.00;100760.66;5047524;28;20033;-72
2022/10/23 04:33:02;;;;;;;17.95;16.77;;;;;;;10.07;100.00;100765.03;5063793;28;20034;-72
2022/10/23 04:35:27;;;;;;;18.58;17.38;;;;;;;10.05;100.00;100764.16;5060129;28;20041;-72
2022/10/23 04:37:53;;;;;;;18.13;17.00;;;;;;;10.11;100.00;100763.25;5045049;28;20036;-72
2022/10/23 04:40:18;;;;;;;16.73;15.68;;;;;;;10.12;100.00;100758.88;5063543;28;20077;-72
2022/10/23 04:42:44;;;;;;;18.67;17.58;;;;;;;10.16;100.00;100758.84;5062075;28;20533;-72
2022/10/23 04:45:10;;;;;;;19.55;18.17;;;;;;;10.13;100.00;100755.34;5042994;28;20033;-72
2022/10/23 04:47:36;;;;;;;18.85;17.45;;;;;;;10.07;100.00;100753.63;5061956;28;20031;-72
2022/10/23 04:50:03;;;;;;;18.10;16.90;;;;;;;10.02;100.00;100763.28;5049085;28;20032;-72
2022/10/23 04:52:47;;;;;;;17.33;16.23;;;;;;;9.95;100.00;100767.66;5063467;28;20048;-72
2022/10/23 04:55:31;;;;;;;19.70;18.38;;;;;;;9.94;100.00;100765.03;5063466;28;20060;-73
2022/10/23 04:58:08;;;;;;;19.30;18.15;;;;;;;9.89;100.00;100767.66;5059546;28;20033;-74
2022/10/23 05:00:33;;;;;;;18.33;17.13;;;;;;;9.83;100.00;100763.28;5043851;28;20033;-73
2022/10/23 05:03:00;;;;;;;19.38;18.08;;;;;;;9.80;100.00;100762.41;5057554;28;20090;-72
2022/10/23 05:05:31;;;;;;;19.02;17.85;;;;;;;9.70;100.00;100765.91;5047448;28;20036;-72
2022/10/23 05:08:22;;;;;;;18.77;17.67;;;;;;;9.54;100.00;100755.34;5067466;28;20029;-72
2022/10/23 05:11:06;;;;;;;19.63;18.13;;;;;;;9.47;100.00;100761.47;5063700;28;20089;-72
2022/10/23 05:13:38;;;;;;;;;;;;;;;9.43;100.00;100763.22;5043118;28;20025;-72
2022/10/23 05:16:04;;;;;;;19.65;18.35;;;;;;;9.40;100.00;100764.97;5061303;28;19935;-72
2022/10/23 05:18:34;;;;;;;19.65;18.45;;;;;;;9.34;100.00;100757.91;5061059;28;20051;-72
2022/10/23 05:21:15;;;;;;;18.63;17.48;;;;;;;9.28;100.00;100762.31;5041569;28;20044;-72
2022/10/23 05:23:43;;;;;;;19.13;17.83;;;;;;;9.22;100.00;100773.69;5061760;28;20044;-73
2022/10/23 05:26:11;;;;;;;19.23;18.02;;;;;;;9.18;100.00;100774.56;5052989;28;20498;-72
2022/10/23 05:28:37;;;;;;;19.92;18.58;;;;;;;9.11;100.00;100771.00;5058430;28;20032;-73
2022/10/23 05:31:04;;;;;;;18.80;17.60;;;;;;;9.06;100.00;100770.13;5063378;28;20430;-72
2022/10/23 05:33:34;;;;;;;19.08;17.88;;;;;;;9.02;100.00;100765.72;5042966;28;20607;-72
2022/10/23 05:36:00;;;;;;;20.10;18.90;;;;;;;8.97;100.00;100764.84;5042604;28;20186;-72
2022/10/23 05:38:32;;;;;;;19.77;18.67;;;;;;;8.94;100.00;100768.31;5067152;28;20024;-72
2022/10/23 05:41:02;;;;;;;20.67;19.52;;;;;;;8.92;100.00;100763.94;5045191;28;20029;-72
2022/10/23 05:43:30;;;;;;;21.73;20.45;;;;;;;8.90;100.00;100765.66;5042640;28;20120;-72
2022/10/23 05:46:03;;;;;;;20.88;19.35;;;;;;;8.90;100.00;100765.66;5061237;28;20494;-72
2022/10/23 05:48:51;;;;;;;21.90;20.58;;;;;;;8.87;100.00;100761.25;5062457;28;20135;-72
2022/10/23 05:51:36;;;;;;;22.42;21.13;;;;;;;8.86;100.00;100771.81;5062738;28;20048;-72
2022/10/23 05:54:26;;;;;;;22.40;21.10;;;;;;;8.76;100.00;100774.38;5045302;28;20039;-72
2022/10/23 05:56:58;;;;;;;21.23;19.83;;;;;;;8.76;100.00;100763.84;5043298;28;20322;-72
2022/10/23 05:59:32;;;;;;;22.17;20.77;;;;;;;8.80;100.00;100769.13;5060830;28;20024;-72
2022/10/23 06:02:16;;;;;;;22.73;21.23;;;;;;;8.85;100.00;100759.50;5066356;28;20894;-72
2022/10/23 06:04:51;;;;;;;19.42;18.17;;;;;;;8.88;100.00;100763.06;5053767;28;20028;-72
2022/10/23 06:07:39;;;;;;;21.95;20.65;;;;;;;8.93;100.00;100752.50;5064812;28;20039;-73
2022/10/23 06:10:05;;;;;;;23.77;22.23;;;;;;;8.96;100.00;100761.31;5062765;28;20052;-73
2022/10/23 06:12:33;;;;;;;23.95;22.27;;;;;;;9.00;100.00;100759.56;5042840;28;20032;-73
2022/10/23 06:14:59;;;;;;;23.35;21.55;;;;;;;9.05;100.00;100765.72;5040272;28;20112;-73
2022/10/23 06:17:38;;;;;;;23.25;21.85;;;;;;;9.08;100.00;100759.59;5041825;28;20033;-72
2022/10/23 06:20:04;;;;;;;22.98;21.48;;;;;;;9.08;100.00;100759.59;5044952;28;20028;-72
2022/10/23 06:22:34;;;;;;;24.50;23.00;;;;;;;9.12;100.00;100753.50;5066810;28;20035;-74
2022/10/23 06:25:13;;;;;;;22.77;21.27;;;;;;;9.20;100.00;100754.38;5048477;28;20455;-72
2022/10/23 06:27:38;;;;;;;22.58;21.05;;;;;;;9.29;100.00;100757.03;5042243;28;20039;-72
2022/10/23 06:30:06;;;;;;;24.00;22.40;;;;;;;9.39;100.00;100758.81;5066850;28;20042;-73
2022/10/23 06:32:31;;;;;;;22.75;21.38;;;;;;;9.49;100.00;100761.47;5044754;28;20526;-72
2022/10/23 06:35:08;;;;;;;24.33;22.27;;;;;;;9.56;100.00;100757.97;5046303;28;20036;-73
2022/10/23 06:37:33;;;;;;;26.95;24.77;;;;;;;9.67;100.00;100761.50;5063385;28;20051;-72
2022/10/23 06:40:12;;;;;;;23.27;21.73;;;;;;;9.81;100.00;100769.44;5050237;28;20031;-72
2022/10/23 06:42:56;;;;;;;24.92;23.42;;;;;;;9.91;100.00;100763.28;5064498;28;20197;-72
2022/10/23 06:45:44;;;;;;;22.75;21.45;;;;;;;9.99;100.00;100766.78;5044351;28;20032;-73
2022/10/23 06:48:13;;;;;;;24.13;22.60;;;;;;;10.07;100.00;100772.94;5066771;28;20395;-73
2022/10/23 06:51:03;;;;;;;22.70;21.30;;;;;;;10.19;100.00;100765.91;5052408;28;20029;-72
2022/10/23 06:53:35;;;;;;;23.15;21.75;;;;;;;10.29;100.00;100763.28;5046190;28;20062;-72
2022/10/23 06:56:08;;;;;;;23.38;21.95;;;;;;;10.41;100.00;100774.72;5049774;28;20028;-72
2022/10/23 06:58:36;;;;;;;23.83;22.23;;;;;;;10.51;100.00;100774.69;5046363;28;20024;-72
2022/10/23 07:01:11;;;;;;;23.60;22.20;;;;;;;10.65;100.00;100773.78;5048486;28;20056;-72
2022/10/23 07:03:38;;;;;;;26.27;24.30;;;;;;;10.77;100.00;100770.22;5053354;28;20025;-72
2022/10/23 07:06:08;;;;;;;24.33;22.92;;;;;;;10.89;100.00;100770.19;5041846;28;20032;-72
2022/10/23 07:08:35;;;;;;;25.05;23.75;;;;;;;11.02;100.00;100761.31;5050402;28;20039;-72
2022/10/23 07:11:06;;;;;;;24.35;22.75;;;;;;;11.15;100.00;100770.06;5053513;28;20028;-72
2022/10/23 07:13:34;;;;;;;24.95;23.45;;;;;;;11.26;100.00;100762.09;5050023;28;20029;-73
2022/10/23 07:16:14;;;;;;;26.27;24.65;;;;;;;11.35;100.00;100759.41;5066714;28;20032;-72
2022/10/23 07:18:40;;;;;;;26.85;25.25;;;;;;;11.44;100.00;100763.75;5061632;28;20033;-72
2022/10/23 07:21:25;;;;;;;29.08;27.05;;;;;;;11.55;100.00;100767.19;5065623;28;20097;-72
2022/10/23 07:23:53;;;;;;;27.00;25.50;;;;;;;11.62;100.00;100764.50;5047021;28;20162;-72
2022/10/23 07:26:18;;;;;;;28.58;26.58;;;;;;;11.73;100.00;100769.72;5051701;28;20032;-73
2022/10/23 07:28:46;;;;;;;30.65;28.77;;;;;;;11.85;100.00;100771.41;5054148;28;20476;-73
2022/10/23 07:31:16;;;;;;;33.53;31.52;;;;;;;11.99;100.00;100776.63;5053133;28;20719;-72
2022/10/23 07:34:02;;;;;;;30.77;28.98;;;;;;;12.11;100.00;100784.47;5058429;28;20037;-72
2022/10/23 07:36:28;;;;;;;29.58;27.88;;;;;;;12.22;100.00;100779.94;5050295;28;20466;-72
2022/10/23 07:38:53;;;;;;;33.63;31.52;;;;;;;12.34;100.00;100784.28;5054818;28;20024;-72
2022/10/23 07:41:19;;;;;;;34.40;32.45;;;;;;;12.41;100.00;100782.44;5045244;28;20498;-72
2022/10/23 07:43:45;;;;;;;33.40;31.30;;;;;;;12.55;100.00;100787.56;5053542;28;20032;-73
2022/10/23 07:46:11;;;;;;;34.22;32.38;;;;;;;12.65;100.00;100789.22;5068701;28;20153;-73
2022/10/23 07:48:39;;;;;;;37.45;35.28;;;;;;;12.78;100.00;100779.38;5055921;28;20491;-73
2022/10/23 07:51:07;;;;;;;35.05;33.10;;;;;;;12.97;100.00;100778.31;5069540;28;20508;-72
2022/10/23 07:53:36;;;;;;;37.67;35.28;;;;;;;13.14;100.00;100778.94;5068931;28;20036;-72
2022/10/23 07:56:23;;;;;;;36.03;33.80;;;;;;;13.31;100.00;100767.31;5050682;28;20028;-75
2022/10/23 07:59:13;;;;;;;34.58;32.72;;;;;;;13.45;100.00;100767.97;5049759;28;20037;-73
2022/10/23 08:01:41;;;;;;;37.08;35.05;;;;;;;13.56;100.00;100760.72;5046308;28;20035;-72
2022/10/23 08:04:08;;;;;;;35.20;33.15;;;;;;;13.71;100.00;100766.72;5063378;28;20161;-73
2022/10/23 08:06:40;;;;;;;33.85;31.85;;;;;;;13.83;100.00;100758.56;5048048;28;20035;-73
2022/10/23 08:09:05;;;;;;;36.85;34.75;;;;;;;13.96;100.00;100759.22;5062705;28;20478;-72
2022/10/23 08:11:34;;;;;;;33.60;31.75;;;;;;;14.07;100.00;100759.94;5044860;28;20038;-72
2022/10/23 08:14:03;;;;;;;36.55;34.25;;;;;;;14.14;100.00;100760.72;5042170;28;20039;-72
2022/10/23 08:16:30;;;;;;;35.53;33.42;;;;;;;14.27;100.00;100767.56;5064097;28;20056;-73
2022/10/23 08:19:03;;;;;;;37.40;35.13;;;;;;;14.41;100.00;100764.69;5077552;28;20090;-73
2022/10/23 08:21:29;;;;;;;35.35;33.53;;;;;;;14.55;100.00;100761.78;5059294;28;20035;-73
2022/10/23 08:23:56;;;;;;;38.88;36.65;;;;;;;14.66;100.00;100760.66;5046574;28;20437;-73
2022/10/23 08:26:23;;;;;;;36.92;34.92;;;;;;;14.71;100.00;100757.06;5044089;28;20078;-73
2022/10/23 08:28:50;;;;;;;41.28;38.90;;;;;;;14.77;100.00;100757.78;5050280;28;20448;-73
2022/10/23 08:31:18;;;;;;;44.40;42.05;;;;;;;14.86;100.00;100757.63;5050700;28;20522;-72
2022/10/23 08:34:01;;;;;;;46.05;43.58;;;;;;;14.78;100.00;100753.38;5050303;28;20032;-73
2022/10/23 08:36:27;;;;;;;47.10;44.30;;;;;;;14.76;100.00;100760.50;5043877;28;20037;-72
2022/10/23 08:38:56;;;;;;;42.72;40.10;;;;;;;14.84;100.00;100748.81;5046185;28;20120;-72
2022/10/23 08:41:33;;;;;;;43.42;40.78;;;;;;;14.97;99.76;100751.22;5047537;28;20394;-72
2022/10/23 08:44:07;;;;;;;44.75;42.38;;;;;;;14.97;99.06;100754.75;5046458;28;20021;-72
2022/10/23 08:46:43;;;;;;;39.67;37.38;;;;;;;15.01;99.69;100759.09;5058804;28;20025;-72
2022/10/23 08:49:39;;;;;;;48.00;45.20;;;;;;;15.09;99.34;100751.84;5060034;28;20047;-72
2022/10/23 08:52:14;;;;;;;46.00;43.60;;;;;;;15.16;98.06;100749.91;5047050;28;20036;-72
2022/10/23 08:54:51;;;;;;;53.85;51.00;;;;;;;15.31;97.75;100749.56;5064500;28;20455;-74
2022/10/23 08:57:20;;;;;;;51.03;48.42;;;;;;;15.43;97.17;100752.84;5061000;28;20463;-73
2022/10/23 08:59:49;;;;;;;51.22;48.45;;;;;;;15.55;96.41;100752.59;5066963;28;20060;-72
2022/10/23 09:02:26;;;;;;;55.63;52.83;;;;;;;15.67;95.17;100749.66;5072136;28;20032;-73
2022/10/23 09:04:54;;;;;;;53.33;50.45;;;;;;;15.77;95.01;100743.22;5065884;28;20041;-73
2022/10/23 09:07:25;;;;;;;53.45;50.67;;;;;;;15.84;94.00;100751.94;5069393;28;20094;-72
2022/10/23 09:09:59;;;;;;;52.97;50.27;;;;;;;15.92;93.87;100757.06;5073097;28;20509;-73
2022/10/23 09:12:28;;;;;;;48.65;45.95;;;;;;;15.94;93.75;100744.59;5068321;28;20039;-72
2022/10/23 09:15:30;;;;;;;54.08;51.20;;;;;;;16.00;93.39;100739.09;5068022;28;20036;-73
2022/10/23 09:18:11;;;;;;;54.08;51.00;;;;;;;16.13;93.04;100723.69;5066492;28;20552;-72
2022/10/23 09:20:42;;;;;;;54.50;51.50;;;;;;;16.23;92.76;100719.88;5067409;28;20438;-73
2022/10/23 09:23:23;;;;;;;54.55;51.42;;;;;;;16.30;92.09;100715.28;5063360;28;20041;-72
2022/10/23 09:25:54;;;;;;;54.03;51.10;;;;;;;16.33;92.27;100720.53;5062644;28;20068;-73
2022/10/23 09:28:40;;;;;;;57.08;54.25;;;;;;;16.42;91.66;100715.81;5042477;28;20033;-73
2022/10/23 09:31:10;;;;;;;64.25;61.03;;;;;;;16.46;91.65;100713.94;5064640;28;20064;-73
2022/10/23 09:33:36;;;;;;;62.35;59.05;;;;;;;16.51;91.53;100708.50;5067031;28;20040;-73
2022/10/23 09:36:05;;;;;;;58.13;55.17;;;;;;;16.57;91.00;100706.53;5059274;28;20036;-73
2022/10/23 09:38:35;;;;;;;61.78;58.35;;;;;;;16.63;90.57;100698.34;5061339;28;20115;-74
2022/10/23 09:41:06;;;;;;;59.03;55.83;;;;;;;16.69;89.96;100691.09;5062782;28;20056;-75
2022/10/23 09:43:31;;;;;;;52.90;50.08;;;;;;;16.67;89.35;100695.63;5057922;28;20102;-73
2022/10/23 09:46:05;;;;;;;55.67;52.58;;;;;;;16.71;88.78;100708.78;5060181;28;20016;-74
2022/10/23 09:48:31;;;;;;;58.63;55.47;;;;;;;16.76;88.74;100706.00;5061329;28;20065;-73
2022/10/23 09:51:02;;;;;;;60.58;57.25;;;;;;;16.87;88.29;100709.25;5059790;28;20036;-73
2022/10/23 09:53:37;;;;;;;63.15;59.67;;;;;;;16.92;87.83;100704.66;5059631;28;20522;-73
2022/10/23 09:56:24;;;;;;;59.00;55.80;;;;;;;17.09;86.42;100709.50;5063002;28;20070;-73
2022/10/23 09:58:59;;;;;;;57.55;54.50;;;;;;;17.17;86.16;100720.81;5049717;28;20124;-73
2022/10/23 10:01:29;;;;;;;63.97;60.72;;;;;;;17.10;84.96;100711.22;5062053;28;20125;-73
2022/10/23 10:04:07;;;;;;;54.30;51.28;;;;;;;17.18;85.94;100717.19;5060415;28;20660;-72
2022/10/23 10:06:33;;;;;;;58.90;55.80;;;;;;;17.35;85.53;100711.38;5065101;28;20127;-73
2022/10/23 10:09:04;;;;;;;57.33;54.13;;;;;;;17.59;85.49;100714.19;5063502;28;20510;-74
2022/10/23 10:11:58;;;;;;;62.47;58.80;;;;;;;17.81;83.39;100711.69;5067098;28;20029;-73
2022/10/23 10:14:58;;;;;;;60.33;57.25;;;;;;;18.01;81.09;100716.38;5065362;28;20040;-74
2022/10/23 10:17:51;;;;;;;55.85;52.95;;;;;;;18.18;80.48;100711.31;5059325;28;20131;-74
2022/10/23 10:20:53;;;;;;;62.17;58.88;;;;;;;18.24;80.99;100719.13;5068723;28;20586;-73
2022/10/23 10:23:28;;;;;;;61.30;58.05;;;;;;;18.13;81.19;100711.50;5065703;28;20039;-74
2022/10/23 10:26:16;;;;;;;60.15;57.00;;;;;;;18.27;80.62;100700.31;5071638;28;20028;-73
2022/10/23 10:29:29;;;;;;;59.10;55.95;;;;;;;18.49;80.08;100702.22;5070555;28;20181;-73
2022/10/23 10:32:04;;;;;;;65.60;62.20;;;;;;;18.62;80.36;100695.50;5057526;28;20044;-74
2022/10/23 10:34:52;;;;;;;64.60;61.40;;;;;;;18.71;79.46;100691.63;5065438;28;20032;-74
2022/10/23 10:37:24;;;;;;;58.85;55.70;;;;;;;18.78;79.44;100686.00;5065326;28;20067;-74
2022/10/23 10:40:17;;;;;;;59.47;56.40;;;;;;;18.79;78.11;100685.09;5069528;28;20037;-74
2022/10/23 10:43:04;;;;;;;56.83;53.88;;;;;;;18.81;78.76;100677.88;5073034;28;20044;-74
2022/10/23 10:45:36;;;;;;;58.85;55.67;;;;;;;18.82;78.78;100673.41;5068681;28;20040;-74
2022/10/23 10:48:25;;;;;;;56.65;53.63;;;;;;;18.89;77.92;100666.91;5068660;28;20582;-73
2022/10/23 10:51:26;;;;;;;61.58;58.40;;;;;;;18.94;77.80;100664.03;5074322;28;20184;-74
2022/10/23 10:54:09;;;;;;;56.63;53.72;;;;;;;18.99;77.15;100654.03;5062592;28;20491;-74
2022/10/23 10:56:40;;;;;;;56.72;53.72;;;;;;;19.00;76.98;100650.44;5064254;28;20037;-73
2022/10/23 10:59:36;;;;;;;58.75;55.47;;;;;;;19.04;76.88;100642.22;5064690;28;20394;-72
2022/10/23 11:02:25;;;;;;;61.47;58.05;;;;;;;19.07;75.56;100648.38;5066821;28;20051;-73
2022/10/23 11:05:28;;;;;;;67.93;64.47;;;;;;;18.96;75.26;100643.44;5067526;28;20491;-73
2022/10/23 11:07:58;;;;;;;60.47;57.28;;;;;;;18.95;76.57;100645.25;5067211;28;20107;-73
2022/10/23 11:10:23;;;;;;;59.33;56.33;;;;;;;18.97;77.18;100632.72;5069879;28;20037;-73
2022/10/23 11:12:50;;;;;;;66.15;62.88;;;;;;;19.04;76.13;100627.97;5070592;28;20074;-73
2022/10/23 11:15:20;;;;;;;59.00;55.75;;;;;;;19.07;76.29;100622.50;5067417;28;20032;-72
2022/10/23 11:17:58;;;;;;;61.22;58.03;;;;;;;19.24;76.02;100613.81;5068399;28;20036;-72
2022/10/23 11:20:52;;;;;;;55.63;52.78;;;;;;;19.40;74.76;100608.69;5069981;28;20445;-72
2022/10/23 11:23:51;;;;;;;51.85;49.10;;;;;;;19.55;73.37;100615.22;5068892;28;20036;-72
2022/10/23 11:26:50;;;;;;;56.97;54.17;;;;;;;19.73;72.56;100601.09;5066733;28;20044;-73
2022/10/23 11:29:21;;;;;;;54.70;51.95;;;;;;;19.84;72.67;100592.59;5068651;28;20105;-73
2022/10/23 11:32:05;;;;;;;56.43;53.50;;;;;;;19.96;71.82;100594.69;5072293;28;20040;-73
2022/10/23 11:34:48;;;;;;;62.58;59.60;;;;;;;20.12;71.16;100593.13;5070814;28;20025;-74